createdAt,value
2022-12-26T00:00:02.995Z,509.00
2022-12-26T00:01:02.960Z,506.00
2022-12-26T00:02:02.919Z,500.00
2022-12-26T00:03:03.007Z,510.00
2022-12-26T00:04:03.012Z,509.00
2022-12-26T00:05:02.830Z,511.00
2022-12-26T00:54:37.979Z,500.00
2022-12-26T00:55:38.915Z,500.00
2022-12-26T00:56:38.908Z,500.00
2022-12-26T00:57:38.866Z,500.00
2022-12-26T00:58:38.839Z,500.00
2022-12-26T00:59:38.827Z,500.00
2022-12-26T01:00:38.827Z,469.00
2022-12-26T01:01:39.042Z,458.00
2022-12-26T01:02:39.043Z,473.00
2022-12-26T01:03:38.731Z,490.00
2022-12-26T01:04:38.714Z,501.00
2022-12-26T01:05:38.693Z,500.00
2022-12-26T01:06:38.672Z,500.00
2022-12-26T01:08:20.103Z,500.00
2022-12-26T01:08:38.634Z,498.00
2022-12-26T01:09:38.610Z,484.00
2022-12-26T01:10:38.620Z,469.00
2022-12-26T01:11:38.571Z,463.00
2022-12-26T01:12:38.554Z,456.00
2022-12-26T01:13:38.543Z,498.00
2022-12-26T01:14:38.506Z,501.00
2022-12-26T01:15:38.479Z,501.00
2022-12-26T01:16:38.542Z,500.00
2022-12-26T01:17:38.438Z,501.00
2022-12-26T01:18:38.402Z,506.00
2022-12-26T01:19:38.378Z,504.00
2022-12-26T01:20:38.356Z,500.00
2022-12-26T01:21:38.340Z,506.00
2022-12-26T01:22:38.320Z,502.00
2022-12-26T01:23:38.340Z,503.00
2022-12-26T01:24:38.266Z,502.00
2022-12-26T01:25:38.242Z,502.00
2022-12-26T01:26:38.240Z,502.00
2022-12-26T01:27:38.194Z,502.00
2022-12-26T01:28:38.168Z,502.00
2022-12-26T01:29:38.144Z,499.00
2022-12-26T01:30:38.137Z,498.00
2022-12-26T01:31:38.205Z,504.00
2022-12-26T01:32:38.080Z,505.00
2022-12-26T01:33:38.040Z,505.00
2022-12-26T01:34:38.017Z,502.00
2022-12-26T01:35:38.014Z,504.00
2022-12-26T01:36:37.970Z,503.00
2022-12-26T01:37:37.941Z,503.00
2022-12-26T01:38:37.929Z,509.00
2022-12-26T01:39:37.905Z,505.00
2022-12-26T01:40:37.883Z,505.00
2022-12-26T01:41:37.860Z,503.00
2022-12-26T01:42:37.878Z,504.00
2022-12-26T01:43:37.819Z,509.00
2022-12-26T01:44:37.811Z,503.00
2022-12-26T01:45:37.820Z,508.00
2022-12-26T01:46:37.774Z,506.00
2022-12-26T01:47:37.741Z,500.00
2022-12-26T01:48:37.713Z,501.00
2022-12-26T01:49:37.713Z,504.00
2022-12-26T01:50:37.671Z,506.00
2022-12-26T01:51:37.660Z,506.00
2022-12-26T01:52:37.635Z,505.00
2022-12-26T01:53:37.626Z,505.00
2022-12-26T01:54:42.328Z,508.00
2022-12-26T01:55:37.572Z,508.00
2022-12-26T01:56:37.552Z,508.00
2022-12-26T01:57:37.542Z,509.00
2022-12-26T01:58:37.550Z,507.00
2022-12-26T01:59:37.500Z,506.00
2022-12-26T02:00:37.559Z,504.00
2022-12-26T02:01:37.550Z,508.00
2022-12-26T02:02:37.514Z,507.00
2022-12-26T02:03:37.420Z,502.00
2022-12-26T02:04:37.390Z,500.00
2022-12-26T02:05:37.369Z,506.00
2022-12-26T02:06:37.351Z,503.00
2022-12-26T02:07:37.340Z,510.00
2022-12-26T02:08:37.313Z,500.00
2022-12-26T02:09:37.306Z,501.00
2022-12-26T02:10:37.337Z,506.00
2022-12-26T02:11:37.248Z,506.00
2022-12-26T02:12:39.170Z,503.00
2022-12-26T02:13:37.198Z,504.00
2022-12-26T02:14:37.217Z,504.00
2022-12-26T02:15:37.149Z,505.00
2022-12-26T02:16:37.178Z,506.00
2022-12-26T02:17:37.096Z,508.00
2022-12-26T02:18:37.072Z,504.00
2022-12-26T02:19:37.061Z,506.00
2022-12-26T02:20:37.035Z,506.00
2022-12-26T02:21:37.032Z,507.00
2022-12-26T02:22:37.026Z,511.00
2022-12-26T02:23:36.973Z,504.00
2022-12-26T02:24:36.971Z,505.00
2022-12-26T02:25:36.940Z,506.00
2022-12-26T02:26:36.925Z,505.00
2022-12-26T02:27:36.891Z,501.00
2022-12-26T02:28:36.880Z,505.00
2022-12-26T02:29:36.861Z,510.00
2022-12-26T02:30:36.869Z,505.00
2022-12-26T02:31:36.872Z,504.00
2022-12-26T02:32:36.810Z,506.00
2022-12-26T02:33:36.794Z,506.00
2022-12-26T02:34:36.780Z,508.00
2022-12-26T02:35:36.779Z,507.00
2022-12-26T02:36:36.748Z,513.00
2022-12-26T02:37:36.732Z,508.00
2022-12-26T02:38:36.712Z,505.00
2022-12-26T02:39:44.372Z,506.00
2022-12-26T02:40:36.688Z,507.00
2022-12-26T02:41:36.658Z,507.00
2022-12-26T02:42:36.636Z,507.00
2022-12-26T02:43:36.637Z,504.00
2022-12-26T02:44:36.604Z,508.00
2022-12-26T02:45:36.657Z,505.00
2022-12-26T02:46:36.612Z,505.00
2022-12-26T02:47:36.549Z,506.00
2022-12-26T02:48:36.533Z,506.00
2022-12-26T02:49:36.520Z,507.00
2022-12-26T02:50:36.508Z,506.00
2022-12-26T02:51:36.499Z,506.00
2022-12-26T02:52:36.481Z,505.00
2022-12-26T02:53:36.444Z,503.00
2022-12-26T02:54:36.427Z,503.00
2022-12-26T02:55:36.397Z,508.00
2022-12-26T02:56:36.381Z,511.00
2022-12-26T02:57:37.066Z,507.00
2022-12-26T02:58:36.360Z,508.00
2022-12-26T02:59:53.969Z,508.00
2022-12-26T03:00:36.337Z,508.00
2022-12-26T03:01:36.395Z,509.00
2022-12-26T03:02:36.372Z,508.00
2022-12-26T03:03:36.253Z,511.00
2022-12-26T03:04:36.236Z,507.00
2022-12-26T03:05:36.220Z,510.00
2022-12-26T03:06:36.207Z,507.00
2022-12-26T03:07:36.188Z,505.00
2022-12-26T03:08:36.175Z,509.00
2022-12-26T03:09:36.159Z,508.00
2022-12-26T03:10:36.138Z,508.00
2022-12-26T03:11:36.129Z,508.00
2022-12-26T03:12:36.141Z,503.00
2022-12-26T03:13:36.106Z,506.00
2022-12-26T03:14:36.095Z,505.00
2022-12-26T03:15:36.081Z,505.00
2022-12-26T03:16:36.155Z,507.00
2022-12-26T03:17:36.052Z,508.00
2022-12-26T03:18:58.594Z,507.00
2022-12-26T03:19:36.049Z,508.00
2022-12-26T03:20:36.011Z,508.00
2022-12-26T03:21:36.006Z,509.00
2022-12-26T03:22:35.986Z,511.00
2022-12-26T03:23:35.968Z,507.00
2022-12-26T03:24:35.953Z,504.00
2022-12-26T03:25:35.943Z,507.00
2022-12-26T03:26:35.925Z,508.00
2022-12-26T03:27:35.943Z,505.00
2022-12-26T03:28:35.897Z,510.00
2022-12-26T03:29:35.891Z,506.00
2022-12-26T03:30:35.928Z,505.00
2022-12-26T03:31:35.852Z,504.00
2022-12-26T03:32:35.841Z,506.00
2022-12-26T03:33:35.825Z,508.00
2022-12-26T03:34:35.826Z,505.00
2022-12-26T03:35:35.810Z,503.00
2022-12-26T03:36:35.775Z,508.00
2022-12-26T03:37:48.756Z,508.00
2022-12-26T03:38:35.737Z,509.00
2022-12-26T03:39:35.713Z,509.00
2022-12-26T03:40:35.703Z,509.00
2022-12-26T03:41:35.672Z,510.00
2022-12-26T03:42:35.648Z,506.00
2022-12-26T03:43:35.631Z,509.00
2022-12-26T03:44:35.602Z,508.00
2022-12-26T03:45:35.596Z,510.00
2022-12-26T03:46:35.669Z,508.00
2022-12-26T03:47:35.577Z,505.00
2022-12-26T03:48:35.545Z,506.00
2022-12-26T03:49:35.534Z,509.00
2022-12-26T03:50:35.563Z,505.00
2022-12-26T03:51:35.453Z,506.00
2022-12-26T03:52:35.452Z,508.00
2022-12-26T03:53:35.410Z,505.00
2022-12-26T03:54:35.389Z,511.00
2022-12-26T03:55:35.392Z,507.00
2022-12-26T03:56:35.352Z,509.00
2022-12-26T03:57:35.348Z,505.00
2022-12-26T03:58:35.316Z,509.00
2022-12-26T03:59:35.307Z,504.00
2022-12-26T04:00:34.262Z,514.00
2022-12-26T04:01:35.377Z,506.00
2022-12-26T04:02:35.374Z,511.00
2022-12-26T04:03:35.299Z,509.00
2022-12-26T04:04:35.173Z,506.00
2022-12-26T04:05:35.152Z,503.00
2022-12-26T04:06:35.163Z,508.00
2022-12-26T04:07:35.118Z,507.00
2022-12-26T04:08:35.096Z,507.00
2022-12-26T04:09:35.083Z,509.00
2022-12-26T04:10:35.068Z,507.00
2022-12-26T04:11:35.037Z,506.00
2022-12-26T04:12:35.019Z,506.00
2022-12-26T04:13:35.009Z,503.00
2022-12-26T04:14:34.989Z,507.00
2022-12-26T04:15:35.039Z,507.00
2022-12-26T04:16:34.965Z,506.00
2022-12-26T04:17:34.938Z,504.00
2022-12-26T04:18:34.917Z,505.00
2022-12-26T04:19:34.900Z,505.00
2022-12-26T04:20:34.891Z,502.00
2022-12-26T04:21:34.867Z,504.00
2022-12-26T04:22:34.880Z,505.00
2022-12-26T04:23:34.836Z,505.00
2022-12-26T04:24:34.820Z,502.00
2022-12-26T04:25:48.791Z,503.00
2022-12-26T04:26:34.780Z,504.00
2022-12-26T04:27:34.763Z,505.00
2022-12-26T04:28:34.758Z,504.00
2022-12-26T04:29:34.753Z,506.00
2022-12-26T04:30:34.738Z,505.00
2022-12-26T04:31:34.786Z,511.00
2022-12-26T04:32:34.695Z,505.00
2022-12-26T04:33:34.680Z,508.00
2022-12-26T04:34:34.665Z,510.00
2022-12-26T04:35:34.652Z,505.00
2022-12-26T04:36:34.643Z,507.00
2022-12-26T04:37:34.624Z,507.00
2022-12-26T04:38:34.636Z,506.00
2022-12-26T04:39:34.591Z,505.00
2022-12-26T04:40:34.585Z,505.00
2022-12-26T04:41:34.565Z,501.00
2022-12-26T04:42:34.545Z,506.00
2022-12-26T04:43:50.502Z,501.00
2022-12-26T04:44:34.516Z,502.00
2022-12-26T04:45:34.496Z,502.00
2022-12-26T04:46:34.668Z,505.00
2022-12-26T04:47:34.499Z,503.00
2022-12-26T04:48:34.446Z,509.00
2022-12-26T04:49:34.432Z,504.00
2022-12-26T04:50:34.424Z,506.00
2022-12-26T04:51:34.408Z,503.00
2022-12-26T04:52:34.396Z,508.00
2022-12-26T04:53:34.392Z,507.00
2022-12-26T04:54:34.395Z,504.00
2022-12-26T04:55:34.350Z,512.00
2022-12-26T04:56:34.332Z,506.00
2022-12-26T04:57:34.318Z,506.00
2022-12-26T04:58:34.310Z,508.00
2022-12-26T04:59:34.282Z,504.00
2022-12-26T05:00:34.265Z,507.00
2022-12-26T05:01:34.503Z,508.00
2022-12-26T05:02:34.361Z,509.00
2022-12-26T05:03:34.264Z,508.00
2022-12-26T05:04:34.198Z,509.00
2022-12-26T05:05:34.179Z,507.00
2022-12-26T05:06:34.161Z,503.00
2022-12-26T05:07:34.144Z,506.00
2022-12-26T05:08:34.129Z,506.00
2022-12-26T05:09:34.113Z,509.00
2022-12-26T05:10:34.119Z,509.00
2022-12-26T05:11:34.075Z,509.00
2022-12-26T05:12:34.060Z,512.00
2022-12-26T05:13:34.043Z,504.00
2022-12-26T05:14:34.032Z,505.00
2022-12-26T05:15:34.095Z,508.00
2022-12-26T05:16:33.993Z,509.00
2022-12-26T05:17:33.981Z,505.00
2022-12-26T05:18:33.961Z,507.00
2022-12-26T05:19:33.948Z,505.00
2022-12-26T05:20:34.013Z,507.00
2022-12-26T05:21:33.914Z,511.00
2022-12-26T05:22:34.616Z,513.00
2022-12-26T05:23:33.890Z,511.00
2022-12-26T05:24:33.912Z,509.00
2022-12-26T05:25:33.855Z,513.00
2022-12-26T05:26:33.872Z,511.00
2022-12-26T05:27:33.825Z,505.00
2022-12-26T05:28:33.810Z,503.00
2022-12-26T05:29:33.806Z,507.00
2022-12-26T05:30:33.818Z,510.00
2022-12-26T05:31:36.492Z,507.00
2022-12-26T05:32:33.772Z,508.00
2022-12-26T05:33:33.765Z,508.00
2022-12-26T05:34:33.785Z,507.00
2022-12-26T05:35:33.757Z,508.00
2022-12-26T05:36:33.729Z,509.00
2022-12-26T05:37:33.762Z,506.00
2022-12-26T05:38:33.696Z,510.00
2022-12-26T05:39:33.708Z,506.00
2022-12-26T05:40:33.673Z,506.00
2022-12-26T05:41:33.653Z,506.00
2022-12-26T05:42:33.668Z,501.00
2022-12-26T05:43:33.624Z,508.00
2022-12-26T05:44:33.613Z,509.00
2022-12-26T05:45:33.614Z,508.00
2022-12-26T05:46:33.661Z,503.00
2022-12-26T05:47:33.568Z,506.00
2022-12-26T05:48:33.554Z,507.00
2022-12-26T05:49:33.528Z,501.00
2022-12-26T05:50:33.509Z,512.00
2022-12-26T05:51:33.495Z,506.00
2022-12-26T05:52:33.479Z,503.00
2022-12-26T05:53:33.481Z,508.00
2022-12-26T05:54:33.442Z,507.00
2022-12-26T05:55:33.424Z,507.00
2022-12-26T05:56:33.411Z,508.00
2022-12-26T05:57:33.392Z,505.00
2022-12-26T05:58:33.403Z,508.00
2022-12-26T05:59:33.371Z,505.00
2022-12-26T06:00:33.331Z,504.00
2022-12-26T06:01:33.512Z,508.00
2022-12-26T06:02:33.440Z,505.00
2022-12-26T06:03:33.396Z,505.00
2022-12-26T06:04:33.260Z,503.00
2022-12-26T06:05:33.248Z,508.00
2022-12-26T06:06:33.228Z,505.00
2022-12-26T06:07:33.209Z,506.00
2022-12-26T06:08:33.196Z,510.00
2022-12-26T06:09:33.179Z,506.00
2022-12-26T06:10:33.163Z,509.00
2022-12-26T06:11:33.142Z,506.00
2022-12-26T06:12:33.123Z,508.00
2022-12-26T06:13:33.109Z,505.00
2022-12-26T06:14:33.114Z,506.00
2022-12-26T06:15:33.084Z,505.00
2022-12-26T06:16:33.126Z,508.00
2022-12-26T06:17:33.042Z,506.00
2022-12-26T06:18:33.017Z,503.00
2022-12-26T06:19:32.997Z,506.00
2022-12-26T06:20:32.982Z,506.00
2022-12-26T06:21:32.971Z,505.00
2022-12-26T06:22:32.945Z,507.00
2022-12-26T06:23:32.928Z,507.00
2022-12-26T06:24:32.913Z,506.00
2022-12-26T06:25:32.888Z,505.00
2022-12-26T06:26:32.881Z,503.00
2022-12-26T06:27:32.862Z,502.00
2022-12-26T06:28:32.841Z,503.00
2022-12-26T06:29:32.813Z,501.00
2022-12-26T06:30:32.831Z,503.00
2022-12-26T06:31:32.826Z,505.00
2022-12-26T06:32:32.764Z,506.00
2022-12-26T06:33:32.779Z,505.00
2022-12-26T06:34:32.735Z,505.00
2022-12-26T06:35:32.717Z,504.00
2022-12-26T06:36:32.733Z,508.00
2022-12-26T06:37:32.683Z,502.00
2022-12-26T06:38:32.665Z,501.00
2022-12-26T06:39:32.645Z,508.00
2022-12-26T06:40:32.622Z,508.00
2022-12-26T06:41:32.634Z,508.00
2022-12-26T06:42:32.591Z,507.00
2022-12-26T06:43:32.558Z,504.00
2022-12-26T06:44:32.530Z,508.00
2022-12-26T06:45:32.516Z,508.00
2022-12-26T06:46:32.590Z,506.00
2022-12-26T06:47:32.480Z,506.00
2022-12-26T06:48:32.466Z,505.00
2022-12-26T06:49:33.381Z,506.00
2022-12-26T06:50:32.436Z,511.00
2022-12-26T06:51:32.402Z,504.00
2022-12-26T06:52:32.378Z,505.00
2022-12-26T06:53:32.354Z,505.00
2022-12-26T06:54:32.343Z,506.00
2022-12-26T06:55:32.321Z,504.00
2022-12-26T06:56:32.305Z,506.00
2022-12-26T06:57:32.273Z,506.00
2022-12-26T06:58:32.254Z,504.00
2022-12-26T06:59:32.268Z,503.00
2022-12-26T07:00:32.384Z,504.00
2022-12-26T07:01:32.306Z,506.00
2022-12-26T07:02:32.355Z,501.00
2022-12-26T07:03:32.153Z,506.00
2022-12-26T07:04:32.136Z,507.00
2022-12-26T07:05:32.115Z,509.00
2022-12-26T07:06:32.094Z,507.00
2022-12-26T07:07:32.076Z,506.00
2022-12-26T07:08:32.065Z,508.00
2022-12-26T07:09:34.067Z,507.00
2022-12-26T07:10:32.026Z,510.00
2022-12-26T07:11:32.008Z,513.00
2022-12-26T07:12:31.980Z,504.00
2022-12-26T07:13:31.972Z,504.00
2022-12-26T07:14:31.944Z,506.00
2022-12-26T07:15:31.904Z,504.00
2022-12-26T07:16:31.911Z,504.00
2022-12-26T07:17:31.860Z,500.00
2022-12-26T07:18:31.875Z,508.00
2022-12-26T07:19:31.818Z,505.00
2022-12-26T07:20:31.817Z,507.00
2022-12-26T07:21:37.965Z,510.00
2022-12-26T07:22:31.766Z,511.00
2022-12-26T07:23:31.732Z,512.00
2022-12-26T07:24:31.738Z,511.00
2022-12-26T07:25:31.684Z,512.00
2022-12-26T07:26:31.666Z,509.00
2022-12-26T07:27:31.648Z,515.00
2022-12-26T07:28:31.675Z,513.00
2022-12-26T07:29:31.659Z,507.00
2022-12-26T07:30:31.576Z,511.00
2022-12-26T07:31:31.620Z,510.00
2022-12-26T07:32:31.536Z,505.00
2022-12-26T07:33:31.502Z,511.00
2022-12-26T07:34:32.268Z,508.00
2022-12-26T07:35:31.436Z,514.00
2022-12-26T07:36:31.418Z,511.00
2022-12-26T07:37:31.384Z,508.00
2022-12-26T07:38:31.394Z,505.00
2022-12-26T07:39:31.340Z,510.00
2022-12-26T07:40:31.325Z,507.00
2022-12-26T07:41:31.315Z,506.00
2022-12-26T07:42:31.290Z,507.00
2022-12-26T07:43:31.266Z,507.00
2022-12-26T07:44:31.252Z,508.00
2022-12-26T07:45:31.293Z,506.00
2022-12-26T07:46:31.329Z,509.00
2022-12-26T07:47:31.172Z,508.00
2022-12-26T07:48:31.143Z,511.00
2022-12-26T07:49:31.126Z,508.00
2022-12-26T07:50:31.117Z,506.00
2022-12-26T07:51:31.069Z,512.00
2022-12-26T07:52:31.050Z,509.00
2022-12-26T07:53:31.029Z,506.00
2022-12-26T07:54:31.015Z,510.00
2022-12-26T07:55:30.992Z,509.00
2022-12-26T07:56:30.978Z,507.00
2022-12-26T07:57:48.247Z,513.00
2022-12-26T07:58:30.937Z,513.00
2022-12-26T07:59:30.920Z,513.00
2022-12-26T08:00:30.901Z,513.00
2022-12-26T08:01:31.127Z,510.00
2022-12-26T08:02:31.084Z,511.00
2022-12-26T08:03:30.901Z,511.00
2022-12-26T08:04:30.830Z,514.00
2022-12-26T08:05:30.813Z,508.00
2022-12-26T08:06:30.822Z,508.00
2022-12-26T08:07:30.788Z,513.00
2022-12-26T08:08:30.745Z,509.00
2022-12-26T08:09:30.728Z,509.00
2022-12-26T08:10:30.708Z,510.00
2022-12-26T08:11:30.721Z,506.00
2022-12-26T08:12:30.661Z,512.00
2022-12-26T08:13:30.644Z,511.00
2022-12-26T08:14:30.610Z,511.00
2022-12-26T08:15:30.590Z,511.00
2022-12-26T08:16:30.602Z,510.00
2022-12-26T08:17:30.546Z,513.00
2022-12-26T08:18:30.528Z,511.00
2022-12-26T08:19:30.510Z,509.00
2022-12-26T08:20:30.486Z,511.00
2022-12-26T08:21:30.473Z,508.00
2022-12-26T08:22:30.469Z,513.00
2022-12-26T08:23:30.430Z,508.00
2022-12-26T08:24:30.413Z,507.00
2022-12-26T08:25:30.372Z,507.00
2022-12-26T08:26:30.358Z,506.00
2022-12-26T08:27:30.330Z,510.00
2022-12-26T08:28:30.310Z,510.00
2022-12-26T08:29:30.299Z,509.00
2022-12-26T08:30:30.269Z,513.00
2022-12-26T08:31:30.276Z,511.00
2022-12-26T08:32:30.247Z,508.00
2022-12-26T08:33:30.223Z,511.00
2022-12-26T08:34:30.192Z,509.00
2022-12-26T08:35:30.167Z,510.00
2022-12-26T08:36:30.163Z,507.00
2022-12-26T08:37:30.129Z,510.00
2022-12-26T08:38:31.838Z,510.00
2022-12-26T08:39:30.086Z,511.00
2022-12-26T08:40:42.696Z,511.00
2022-12-26T08:41:30.051Z,511.00
2022-12-26T08:42:30.030Z,512.00
2022-12-26T08:44:30.034Z,511.00
2022-12-26T08:45:29.985Z,512.00
2022-12-26T08:46:29.961Z,514.00
2022-12-26T08:47:29.938Z,513.00
2022-12-26T08:48:29.921Z,516.00
2022-12-26T08:49:29.904Z,512.00
2022-12-26T08:50:29.878Z,513.00
2022-12-26T08:51:29.866Z,514.00
2022-12-26T08:52:29.844Z,513.00
2022-12-26T08:53:29.837Z,507.00
2022-12-26T08:54:29.832Z,504.00
2022-12-26T08:55:29.793Z,506.00
2022-12-26T08:56:29.768Z,504.00
2022-12-26T08:57:29.753Z,505.00
2022-12-26T08:58:29.780Z,510.00
2022-12-26T08:59:29.716Z,510.00
2022-12-26T09:00:29.706Z,511.00
2022-12-26T09:01:29.977Z,510.00
2022-12-26T09:02:29.870Z,508.00
2022-12-26T09:03:29.715Z,511.00
2022-12-26T09:04:29.639Z,510.00
2022-12-26T09:05:29.623Z,507.00
2022-12-26T09:06:29.611Z,510.00
2022-12-26T09:07:29.592Z,506.00
2022-12-26T09:08:29.572Z,510.00
2022-12-26T09:09:29.556Z,510.00
2022-12-26T09:10:29.562Z,507.00
2022-12-26T09:11:29.519Z,508.00
2022-12-26T09:12:29.506Z,506.00
2022-12-26T09:13:29.480Z,507.00
2022-12-26T09:14:29.459Z,508.00
2022-12-26T09:15:29.444Z,514.00
2022-12-26T09:16:34.121Z,512.00
2022-12-26T09:17:29.459Z,512.00
2022-12-26T09:18:29.395Z,513.00
2022-12-26T09:19:29.374Z,512.00
2022-12-26T09:20:29.363Z,512.00
2022-12-26T09:21:29.347Z,514.00
2022-12-26T09:22:35.076Z,512.00
2022-12-26T09:23:29.312Z,513.00
2022-12-26T09:24:29.294Z,514.00
2022-12-26T09:25:29.284Z,514.00
2022-12-26T09:26:29.321Z,510.00
2022-12-26T09:27:29.250Z,511.00
2022-12-26T09:28:29.245Z,513.00
2022-12-26T09:29:29.224Z,512.00
2022-12-26T09:30:29.209Z,512.00
2022-12-26T09:31:29.188Z,515.00
2022-12-26T09:32:29.172Z,509.00
2022-12-26T09:33:29.162Z,511.00
2022-12-26T09:34:29.137Z,510.00
2022-12-26T09:35:29.110Z,510.00
2022-12-26T09:36:29.083Z,510.00
2022-12-26T09:37:29.067Z,514.00
2022-12-26T09:38:29.127Z,513.00
2022-12-26T09:39:29.031Z,513.00
2022-12-26T09:40:29.001Z,511.00
2022-12-26T09:41:28.986Z,509.00
2022-12-26T09:42:28.985Z,509.00
2022-12-26T09:43:28.954Z,511.00
2022-12-26T09:44:28.938Z,514.00
2022-12-26T09:45:28.901Z,514.00
2022-12-26T09:46:28.970Z,514.00
2022-12-26T09:47:28.862Z,514.00
2022-12-26T09:48:28.875Z,514.00
2022-12-26T09:49:28.824Z,512.00
2022-12-26T09:50:28.811Z,512.00
2022-12-26T09:51:28.799Z,510.00
2022-12-26T09:52:28.773Z,511.00
2022-12-26T09:53:28.757Z,516.00
2022-12-26T09:54:28.743Z,514.00
2022-12-26T09:55:28.730Z,514.00
2022-12-26T09:57:28.688Z,515.00
2022-12-26T09:58:28.701Z,515.00
2022-12-26T09:59:28.658Z,515.00
2022-12-26T10:00:28.635Z,513.00
2022-12-26T10:01:28.798Z,512.00
2022-12-26T10:02:28.701Z,516.00
2022-12-26T10:03:28.583Z,513.00
2022-12-26T10:04:30.236Z,515.00
2022-12-26T10:05:28.543Z,515.00
2022-12-26T10:06:28.526Z,516.00
2022-12-26T10:07:28.521Z,516.00
2022-12-26T10:08:28.491Z,514.00
2022-12-26T10:09:28.477Z,512.00
2022-12-26T10:10:28.453Z,514.00
2022-12-26T10:11:28.433Z,515.00
2022-12-26T10:12:28.425Z,515.00
2022-12-26T10:13:28.399Z,514.00
2022-12-26T10:14:28.409Z,515.00
2022-12-26T10:15:28.374Z,516.00
2022-12-26T10:16:28.340Z,519.00
2022-12-26T10:17:28.321Z,518.00
2022-12-26T10:18:28.312Z,514.00
2022-12-26T10:19:32.489Z,514.00
2022-12-26T10:20:28.417Z,515.00
2022-12-26T10:21:28.399Z,516.00
2022-12-26T10:22:28.384Z,516.00
2022-12-26T10:23:28.365Z,516.00
2022-12-26T10:24:28.331Z,515.00
2022-12-26T10:25:33.619Z,521.00
2022-12-26T10:26:28.313Z,521.00
2022-12-26T10:27:28.318Z,521.00
2022-12-26T10:28:28.254Z,518.00
2022-12-26T10:29:28.243Z,517.00
2022-12-26T10:30:28.242Z,519.00
2022-12-26T10:31:28.351Z,523.00
2022-12-26T10:32:28.450Z,513.00
2022-12-26T10:33:28.148Z,519.00
2022-12-26T10:34:28.136Z,515.00
2022-12-26T10:35:28.112Z,516.00
2022-12-26T10:36:28.093Z,517.00
2022-12-26T10:37:28.083Z,519.00
2022-12-26T10:38:28.109Z,516.00
2022-12-26T10:39:28.023Z,516.00
2022-12-26T10:40:28.027Z,512.00
2022-12-26T10:41:27.979Z,515.00
2022-12-26T10:42:27.956Z,518.00
2022-12-26T10:43:27.938Z,518.00
2022-12-26T10:44:28.240Z,516.00
2022-12-26T10:45:27.896Z,514.00
2022-12-26T10:46:27.981Z,515.00
2022-12-26T10:47:27.885Z,517.00
2022-12-26T10:48:27.835Z,516.00
2022-12-26T10:49:27.815Z,515.00
2022-12-26T10:50:28.180Z,513.00
2022-12-26T10:51:27.775Z,514.00
2022-12-26T10:52:27.777Z,517.00
2022-12-26T10:53:27.725Z,517.00
2022-12-26T10:54:27.704Z,516.00
2022-12-26T10:55:31.775Z,515.00
2022-12-26T10:56:27.681Z,516.00
2022-12-26T10:57:27.690Z,516.00
2022-12-26T10:58:27.647Z,517.00
2022-12-26T10:59:27.636Z,519.00
2022-12-26T11:00:27.584Z,516.00
2022-12-26T11:01:27.680Z,518.00
2022-12-26T11:02:27.748Z,522.00
2022-12-26T11:03:27.621Z,521.00
2022-12-26T11:05:57.094Z,515.00
2022-12-26T11:06:27.454Z,515.00
2022-12-26T11:07:27.436Z,517.00
2022-12-26T11:08:27.416Z,519.00
2022-12-26T11:09:27.374Z,520.00
2022-12-26T11:10:27.363Z,520.00
2022-12-26T11:11:27.348Z,523.00
2022-12-26T11:12:27.305Z,521.00
2022-12-26T11:13:27.281Z,516.00
2022-12-26T11:14:31.751Z,515.00
2022-12-26T11:15:27.212Z,516.00
2022-12-26T11:16:27.233Z,517.00
2022-12-26T11:17:27.164Z,518.00
2022-12-26T11:18:27.163Z,520.00
2022-12-26T13:12:24.258Z,515.00
2022-12-26T13:13:24.221Z,514.00
2022-12-26T13:14:24.202Z,510.00
2022-12-26T13:15:24.173Z,512.00
2022-12-26T13:16:24.172Z,513.00
2022-12-26T13:17:24.133Z,516.00
2022-12-26T13:18:24.105Z,514.00
2022-12-26T13:19:24.093Z,511.00
2022-12-26T13:20:24.046Z,516.00
2022-12-26T13:21:24.023Z,513.00
2022-12-26T13:22:23.998Z,510.00
2022-12-26T13:23:23.978Z,509.00
2022-12-26T13:24:23.962Z,513.00
2022-12-26T13:25:23.942Z,511.00
2022-12-26T13:26:23.951Z,510.00
2022-12-26T13:27:23.896Z,512.00
2022-12-26T13:28:23.869Z,511.00
2022-12-26T13:29:23.850Z,510.00
2022-12-26T13:30:23.832Z,509.00
2022-12-26T13:31:23.859Z,510.00
2022-12-26T13:32:23.771Z,512.00
2022-12-26T13:33:23.768Z,508.00
2022-12-26T13:34:23.797Z,509.00
2022-12-26T13:35:23.699Z,511.00
2022-12-26T13:36:23.675Z,516.00
2022-12-26T13:37:23.650Z,513.00
2022-12-26T13:38:23.632Z,512.00
2022-12-26T13:39:23.676Z,513.00
2022-12-26T13:40:23.572Z,509.00
2022-12-26T13:41:23.575Z,513.00
2022-12-26T13:42:23.545Z,513.00
2022-12-26T13:43:23.505Z,512.00
2022-12-26T13:44:23.476Z,512.00
2022-12-26T13:45:23.458Z,509.00
2022-12-26T13:46:23.543Z,514.00
2022-12-26T13:47:23.402Z,509.00
2022-12-26T13:48:23.379Z,510.00
2022-12-26T13:49:23.341Z,510.00
2022-12-26T13:50:23.317Z,514.00
2022-12-26T13:51:23.290Z,509.00
2022-12-26T13:52:23.273Z,510.00
2022-12-26T13:53:23.241Z,512.00
2022-12-26T13:54:23.226Z,512.00
2022-12-26T13:55:23.195Z,506.00
2022-12-26T13:56:23.169Z,509.00
2022-12-26T13:57:23.155Z,511.00
2022-12-26T13:58:23.142Z,512.00
2022-12-26T13:59:23.095Z,513.00
2022-12-26T14:00:23.081Z,511.00
2022-12-26T14:01:23.160Z,515.00
2022-12-26T14:02:32.101Z,513.00
2022-12-26T14:03:23.181Z,514.00
2022-12-26T14:04:23.009Z,514.00
2022-12-26T14:05:22.964Z,516.00
2022-12-26T14:06:23.263Z,515.00
2022-12-26T14:07:22.925Z,515.00
2022-12-26T14:08:22.908Z,513.00
2022-12-26T14:09:22.988Z,512.00
2022-12-26T14:10:22.873Z,510.00
2022-12-26T14:11:22.846Z,515.00
2022-12-26T14:12:22.829Z,511.00
2022-12-26T14:13:22.803Z,515.00
2022-12-26T14:14:22.821Z,513.00
2022-12-26T14:15:22.766Z,510.00
2022-12-26T14:16:22.774Z,512.00
2022-12-26T14:17:22.772Z,506.00
2022-12-26T14:18:23.744Z,511.00
2022-12-26T14:19:22.689Z,517.00
2022-12-26T14:20:22.682Z,509.00
2022-12-26T14:21:22.665Z,513.00
2022-12-26T14:22:22.637Z,509.00
2022-12-26T14:23:22.623Z,508.00
2022-12-26T14:24:22.604Z,509.00
2022-12-26T14:25:22.595Z,502.00
2022-12-26T14:26:22.644Z,508.00
2022-12-26T14:27:22.544Z,508.00
2022-12-26T14:28:22.531Z,507.00
2022-12-26T14:29:22.510Z,512.00
2022-12-26T14:30:22.526Z,508.00
2022-12-26T14:31:22.476Z,511.00
2022-12-26T14:32:22.461Z,510.00
2022-12-26T14:33:22.432Z,515.00
2022-12-26T14:34:22.429Z,507.00
2022-12-26T14:35:22.393Z,507.00
2022-12-26T14:36:22.403Z,510.00
2022-12-26T14:37:22.383Z,509.00
2022-12-26T14:38:22.348Z,507.00
2022-12-26T14:39:22.328Z,509.00
2022-12-26T14:40:22.305Z,506.00
2022-12-26T14:41:22.285Z,509.00
2022-12-26T14:42:22.268Z,507.00
2022-12-26T14:43:22.245Z,510.00
2022-12-26T14:44:22.229Z,503.00
2022-12-26T14:45:22.207Z,507.00
2022-12-26T14:46:22.332Z,508.00
2022-12-26T14:47:22.167Z,504.00
2022-12-26T14:48:22.147Z,508.00
2022-12-26T14:49:22.148Z,504.00
2022-12-26T14:50:22.123Z,508.00
2022-12-26T14:51:22.115Z,507.00
2022-12-26T14:52:22.068Z,504.00
2022-12-26T14:53:22.054Z,506.00
2022-12-26T14:54:22.038Z,510.00
2022-12-26T14:55:22.004Z,508.00
2022-12-26T14:56:21.989Z,509.00
2022-12-26T14:57:21.966Z,504.00
2022-12-26T14:58:21.951Z,510.00
2022-12-26T14:59:21.925Z,507.00
2022-12-26T15:00:21.922Z,506.00
2022-12-26T15:01:22.024Z,507.00
2022-12-26T15:02:22.319Z,511.00
2022-12-26T15:03:21.880Z,509.00
2022-12-26T15:04:21.827Z,504.00
2022-12-26T15:05:21.801Z,504.00
2022-12-26T15:06:21.779Z,509.00
2022-12-26T15:07:21.755Z,505.00
2022-12-26T15:08:21.745Z,510.00
2022-12-26T15:09:21.722Z,508.00
2022-12-26T15:10:21.692Z,509.00
2022-12-26T15:11:21.673Z,506.00
2022-12-26T15:12:21.667Z,507.00